sensor_id;sensor_type;location;lat;lon;timestamp;pressure;altitude;pressure_sealevel;temperature;humidity
69957;BME280;57283;54.816;9.482;2023-04-01T09:52:06;100138.06;;;3.00;100.00
69957;BME280;57283;54.816;9.482;2023-04-01T09:54:55;58064.31;;;-143.23;100.00
69957;BME280;57283;54.816;9.482;2023-04-01T10:00:53;58064.31;;;-143.23;100.00
69957;BME280;57283;54.816;9.482;2023-04-01T10:06:46;58064.31;;;-143.23;100.00
69957;BME280;57283;54.816;9.482;2023-04-01T10:09:58;58064.31;;;-143.23;100.00
69957;BME280;57283;54.816;9.482;2023-04-01T10:12:50;58064.31;;;-143.23;100.00
69957;BME280;57283;54.816;9.482;2023-04-01T10:18:42;58064.31;;;-143.23;100.00
69957;BME280;57283;54.816;9.482;2023-04-01T10:34:40;58064.31;;;-143.23;100.00
69957;BME280;57283;54.816;9.482;2023-04-01T10:41:44;58064.31;;;-143.23;100.00
69957;BME280;57283;54.816;9.482;2023-04-01T10:51:16;58064.31;;;-143.23;100.00
69957;BME280;57283;54.816;9.482;2023-04-01T10:54:13;58064.31;;;-143.23;100.00
69957;BME280;57283;54.816;9.482;2023-04-01T10:56:51;58064.31;;;-143.23;100.00
69957;BME280;57283;54.816;9.482;2023-04-01T10:59:36;58064.31;;;-143.23;100.00
69957;BME280;57283;54.816;9.482;2023-04-01T11:15:04;111821.28;;;-143.23;100.00
69957;BME280;57283;54.816;9.482;2023-04-01T11:21:07;58064.31;;;-143.23;100.00
69957;BME280;57283;54.816;9.482;2023-04-01T11:23:50;58064.31;;;-143.23;100.00
69957;BME280;57283;54.816;9.482;2023-04-01T11:26:39;58064.31;;;-143.23;100.00
69957;BME280;57283;54.816;9.482;2023-04-01T11:32:42;100138.06;;;3.00;100.00
69957;BME280;57283;54.816;9.482;2023-04-01T11:38:27;100244.47;;;4.47;100.00
69957;BME280;57283;54.816;9.482;2023-04-01T11:41:07;100275.56;;;4.41;100.00
69957;BME280;57283;54.816;9.482;2023-04-01T11:43:41;100221.25;;;4.41;100.00
69957;BME280;57283;54.816;9.482;2023-04-01T11:46:19;100221.25;;;4.41;100.00
69957;BME280;57283;54.816;9.482;2023-04-01T11:48:58;100283.44;;;4.27;100.00
69957;BME280;57283;54.816;9.482;2023-04-01T11:51:53;100291.22;;;4.22;100.00
69957;BME280;57283;54.816;9.482;2023-04-01T11:54:40;100301.22;;;4.62;100.00
69957;BME280;57283;54.816;9.482;2023-04-01T11:57:39;100301.22;;;4.62;100.00
69957;BME280;57283;54.816;9.482;2023-04-01T12:00:21;100301.22;;;4.62;100.00
69957;BME280;57283;54.816;9.482;2023-04-01T12:03:06;100307.66;;;4.17;100.00
69957;BME280;57283;54.816;9.482;2023-04-01T12:05:42;100278.13;;;4.42;100.00
69957;BME280;57283;54.816;9.482;2023-04-01T12:08:25;100308.97;;;4.65;100.00
69957;BME280;57283;54.816;9.482;2023-04-01T12:10:59;100310.53;;;4.81;100.00
69957;BME280;57283;54.816;9.482;2023-04-01T12:13:39;100278.28;;;4.24;100.00
69957;BME280;57283;54.816;9.482;2023-04-01T12:16:22;100281.44;;;4.58;100.00
69957;BME280;57283;54.816;9.482;2023-04-01T12:18:58;100320.25;;;4.55;100.00
69957;BME280;57283;54.816;9.482;2023-04-01T12:21:34;100285.66;;;4.68;100.00
69957;BME280;57283;54.816;9.482;2023-04-01T12:24:41;100333.03;;;4.70;100.00
69957;BME280;57283;54.816;9.482;2023-04-01T12:27:39;100345.31;;;4.47;100.00
69957;BME280;57283;54.816;9.482;2023-04-01T12:30:21;100335.06;;;4.36;100.00
69957;BME280;57283;54.816;9.482;2023-04-01T12:33:10;100299.06;;;4.12;100.00
69957;BME280;57283;54.816;9.482;2023-04-01T12:35:52;100351.25;;;4.58;100.00
69957;BME280;57283;54.816;9.482;2023-04-01T12:38:31;100357.16;;;4.72;100.00
69957;BME280;57283;54.816;9.482;2023-04-01T12:41:09;100347.66;;;4.76;100.00
69957;BME280;57283;54.816;9.482;2023-04-01T12:43:59;100358.91;;;4.70;100.00
69957;BME280;57283;54.816;9.482;2023-04-01T12:46:52;100357.16;;;4.74;100.00
69957;BME280;57283;54.816;9.482;2023-04-01T12:49:54;100351.84;;;4.87;100.00
69957;BME280;57283;54.816;9.482;2023-04-01T12:52:31;100352.41;;;4.24;100.00
69957;BME280;57283;54.816;9.482;2023-04-01T12:55:31;100370.38;;;4.39;100.00
69957;BME280;57283;54.816;9.482;2023-04-01T13:01:25;100382.41;;;4.43;100.00
69957;BME280;57283;54.816;9.482;2023-04-01T13:04:19;100382.13;;;4.76;100.00
69957;BME280;57283;54.816;9.482;2023-04-01T13:07:01;100367.59;;;4.63;100.00
69957;BME280;57283;54.816;9.482;2023-04-01T13:09:41;100394.44;;;4.50;100.00
69957;BME280;57283;54.816;9.482;2023-04-01T13:12:38;100404.72;;;4.56;100.00
69957;BME280;57283;54.816;9.482;2023-04-01T13:15:25;100390.16;;;4.46;100.00
69957;BME280;57283;54.816;9.482;2023-04-01T13:17:58;100413.41;;;4.47;100.00
69957;BME280;57283;54.816;9.482;2023-04-01T13:20:43;100413.41;;;4.47;100.00
69957;BME280;57283;54.816;9.482;2023-04-01T13:23:25;100400.59;;;4.31;100.00
69957;BME280;57283;54.816;9.482;2023-04-01T13:26:05;100408.44;;;4.18;100.00
69957;BME280;57283;54.816;9.482;2023-04-01T13:28:45;100425.50;;;4.44;100.00
69957;BME280;57283;54.816;9.482;2023-04-01T13:31:41;100434.13;;;4.43;100.00
69957;BME280;57283;54.816;9.482;2023-04-01T13:34:21;100404.97;;;4.21;100.00
69957;BME280;57283;54.816;9.482;2023-04-01T13:37:00;100428.28;;;4.15;100.00
69957;BME280;57283;54.816;9.482;2023-04-01T13:39:49;100423.81;;;4.37;100.00
69957;BME280;57283;54.816;9.482;2023-04-01T13:42:28;100424.72;;;4.33;100.00
69957;BME280;57283;54.816;9.482;2023-04-01T13:45:02;100451.31;;;4.50;100.00
69957;BME280;57283;54.816;9.482;2023-04-01T13:51:26;100427.88;;;4.70;100.00
69957;BME280;57283;54.816;9.482;2023-04-01T13:54:15;100446.78;;;4.79;100.00
69957;BME280;57283;54.816;9.482;2023-04-01T13:56:59;100449.44;;;4.70;100.00
69957;BME280;57283;54.816;9.482;2023-04-01T13:59:44;100434.97;;;4.45;100.00
69957;BME280;57283;54.816;9.482;2023-04-01T14:02:37;100459.13;;;4.44;100.00
69957;BME280;57283;54.816;9.482;2023-04-01T14:05:30;100453.09;;;4.39;100.00
69957;BME280;57283;54.816;9.482;2023-04-01T14:08:17;100462.97;;;5.03;100.00
69957;BME280;57283;54.816;9.482;2023-04-01T14:10:54;100450.50;;;4.43;100.00
69957;BME280;57283;54.816;9.482;2023-04-01T14:13:31;100467.34;;;4.96;100.00
69957;BME280;57283;54.816;9.482;2023-04-01T14:16:21;100469.94;;;4.95;100.00
69957;BME280;57283;54.816;9.482;2023-04-01T14:19:08;100477.75;;;4.88;100.00
69957;BME280;57283;54.816;9.482;2023-04-01T14:21:41;100462.47;;;4.58;100.00
69957;BME280;57283;54.816;9.482;2023-04-01T14:24:46;100390.94;;;4.54;100.00
69957;BME280;57283;54.816;9.482;2023-04-01T14:27:24;100490.63;;;4.98;100.00
69957;BME280;57283;54.816;9.482;2023-04-01T14:30:07;100472.94;;;5.45;100.00
69957;BME280;57283;54.816;9.482;2023-04-01T14:32:44;100490.13;;;5.52;100.00
69957;BME280;57283;54.816;9.482;2023-04-01T14:35:25;100474.47;;;5.65;100.00
69957;BME280;57283;54.816;9.482;2023-04-01T14:38:04;100494.06;;;5.87;100.00
69957;BME280;57283;54.816;9.482;2023-04-01T14:40:50;100502.19;;;5.53;100.00
69957;BME280;57283;54.816;9.482;2023-04-01T14:43:44;100491.69;;;6.41;100.00
69957;BME280;57283;54.816;9.482;2023-04-01T14:46:26;100489.09;;;6.41;100.00
69957;BME280;57283;54.816;9.482;2023-04-01T14:49:01;100482.03;;;7.06;100.00
69957;BME280;57283;54.816;9.482;2023-04-01T14:51:33;100509.09;;;6.31;100.00
69957;BME280;57283;54.816;9.482;2023-04-01T14:54:06;100511.34;;;5.89;100.00
69957;BME280;57283;54.816;9.482;2023-04-01T14:56:41;100519.72;;;6.11;100.00
69957;BME280;57283;54.816;9.482;2023-04-01T14:59:14;100511.91;;;6.14;100.00
69957;BME280;57283;54.816;9.482;2023-04-01T15:01:50;100503.81;;;5.67;100.00
69957;BME280;57283;54.816;9.482;2023-04-01T15:07:33;100523.91;;;6.21;100.00
69957;BME280;57283;54.816;9.482;2023-04-01T15:10:09;100530.78;;;6.27;100.00
69957;BME280;57283;54.816;9.482;2023-04-01T15:12:52;100522.56;;;5.88;100.00
69957;BME280;57283;54.816;9.482;2023-04-01T15:15:30;100513.19;;;5.77;100.00
69957;BME280;57283;54.816;9.482;2023-04-01T15:18:08;100553.78;;;5.75;100.00
69957;BME280;57283;54.816;9.482;2023-04-01T15:20:56;100565.91;;;5.73;100.00
69957;BME280;57283;54.816;9.482;2023-04-01T15:23:43;100535.31;;;6.07;100.00
69957;BME280;57283;54.816;9.482;2023-04-01T15:26:21;100505.28;;;5.89;100.00
69957;BME280;57283;54.816;9.482;2023-04-01T15:29:06;100575.34;;;5.80;100.00
69957;BME280;57283;54.816;9.482;2023-04-01T15:31:42;100564.97;;;5.81;100.00
69957;BME280;57283;54.816;9.482;2023-04-01T15:34:24;100576.03;;;6.00;100.00
69957;BME280;57283;54.816;9.482;2023-04-01T15:36:56;100594.16;;;6.02;100.00
69957;BME280;57283;54.816;9.482;2023-04-01T15:39:41;100596.00;;;5.90;100.00
69957;BME280;57283;54.816;9.482;2023-04-01T15:42:28;100577.97;;;5.74;100.00
69957;BME280;57283;54.816;9.482;2023-04-01T15:45:10;100591.94;;;5.60;100.00
69957;BME280;57283;54.816;9.482;2023-04-01T15:47:42;100574.94;;;5.29;100.00
69957;BME280;57283;54.816;9.482;2023-04-01T15:53:49;100570.72;;;5.19;100.00
69957;BME280;57283;54.816;9.482;2023-04-01T15:56:32;100596.41;;;5.42;100.00
69957;BME280;57283;54.816;9.482;2023-04-01T15:59:18;100622.16;;;5.63;100.00
69957;BME280;57283;54.816;9.482;2023-04-01T16:01:53;100581.84;;;5.27;100.00
69957;BME280;57283;54.816;9.482;2023-04-01T16:04:40;100604.16;;;5.43;100.00
69957;BME280;57283;54.816;9.482;2023-04-01T16:07:21;100579.28;;;5.25;100.00
69957;BME280;57283;54.816;9.482;2023-04-01T16:10:04;100624.91;;;5.37;100.00
69957;BME280;57283;54.816;9.482;2023-04-01T16:12:47;100586.25;;;5.17;100.00
69957;BME280;57283;54.816;9.482;2023-04-01T16:15:24;100601.00;;;5.05;100.00
69957;BME280;57283;54.816;9.482;2023-04-01T16:18:15;100634.41;;;5.41;100.00
69957;BME280;57283;54.816;9.482;2023-04-01T16:20:53;100640.41;;;5.49;100.00
69957;BME280;57283;54.816;9.482;2023-04-01T16:23:26;100637.09;;;5.26;100.00
69957;BME280;57283;54.816;9.482;2023-04-01T16:26:03;100658.66;;;5.28;100.00
69957;BME280;57283;54.816;9.482;2023-04-01T16:28:38;100664.81;;;5.06;100.00
69957;BME280;57283;54.816;9.482;2023-04-01T16:31:12;100661.31;;;5.19;100.00
69957;BME280;57283;54.816;9.482;2023-04-01T16:33:47;100665.66;;;5.12;100.00
69957;BME280;57283;54.816;9.482;2023-04-01T16:36:26;100680.41;;;5.01;100.00
69957;BME280;57283;54.816;9.482;2023-04-01T16:39:08;100617.63;;;4.69;100.00
69957;BME280;57283;54.816;9.482;2023-04-01T16:41:46;100686.38;;;5.12;100.00
69957;BME280;57283;54.816;9.482;2023-04-01T16:44:20;100674.38;;;4.96;100.00
69957;BME280;57283;54.816;9.482;2023-04-01T16:46:51;100683.88;;;4.91;100.00
69957;BME280;57283;54.816;9.482;2023-04-01T16:49:27;100678.72;;;4.89;100.00
69957;BME280;57283;54.816;9.482;2023-04-01T16:52:11;100678.78;;;4.74;100.00
69957;BME280;57283;54.816;9.482;2023-04-01T16:54:44;100668.50;;;4.67;100.00
69957;BME280;57283;54.816;9.482;2023-04-01T16:57:19;100675.44;;;4.48;100.00
69957;BME280;57283;54.816;9.482;2023-04-01T16:59:57;100711.56;;;4.72;100.00
69957;BME280;57283;54.816;9.482;2023-04-01T17:02:31;100668.56;;;4.47;100.00
69957;BME280;57283;54.816;9.482;2023-04-01T17:05:04;100712.47;;;4.59;100.00
69957;BME280;57283;54.816;9.482;2023-04-01T17:07:48;100731.44;;;4.61;100.00
69957;BME280;57283;54.816;9.482;2023-04-01T17:10:31;100734.88;;;4.57;100.00
69957;BME280;57283;54.816;9.482;2023-04-01T17:13:26;100743.53;;;4.45;100.00
69957;BME280;57283;54.816;9.482;2023-04-01T17:16:06;100744.41;;;4.43;100.00
69957;BME280;57283;54.816;9.482;2023-04-01T17:18:45;100753.88;;;4.42;100.00
69957;BME280;57283;54.816;9.482;2023-04-01T17:21:18;100761.66;;;4.42;100.00
69957;BME280;57283;54.816;9.482;2023-04-01T17:23:51;100739.25;;;4.31;100.00
69957;BME280;57283;54.816;9.482;2023-04-01T17:26:28;100770.25;;;4.37;100.00
69957;BME280;57283;54.816;9.482;2023-04-01T17:29:03;100741.00;;;4.10;100.00
69957;BME280;57283;54.816;9.482;2023-04-01T17:31:45;100748.75;;;4.15;100.00
69957;BME280;57283;54.816;9.482;2023-04-01T17:34:35;100776.31;;;4.14;100.00
69957;BME280;57283;54.816;9.482;2023-04-01T17:37:28;100791.84;;;4.16;100.00
69957;BME280;57283;54.816;9.482;2023-04-01T17:40:08;100797.84;;;4.06;100.00
69957;BME280;57283;54.816;9.482;2023-04-01T17:42:47;100807.31;;;4.02;100.00
69957;BME280;57283;54.816;9.482;2023-04-01T17:45:22;100810.78;;;4.01;100.00
69957;BME280;57283;54.816;9.482;2023-04-01T17:48:03;100767.66;;;3.71;100.00
69957;BME280;57283;54.816;9.482;2023-04-01T17:50:46;100821.09;;;3.92;100.00
69957;BME280;57283;54.816;9.482;2023-04-01T17:53:27;100796.09;;;3.74;100.00
69957;BME280;57283;54.816;9.482;2023-04-01T17:56:06;100807.28;;;3.78;100.00
69957;BME280;57283;54.816;9.482;2023-04-01T17:58:44;100838.31;;;3.89;100.00
69957;BME280;57283;54.816;9.482;2023-04-01T18:01:25;100833.16;;;3.82;100.00
69957;BME280;57283;54.816;9.482;2023-04-01T18:04:08;100827.91;;;3.69;100.00
69957;BME280;57283;54.816;9.482;2023-04-01T18:06:50;100853.81;;;3.82;100.00
69957;BME280;57283;54.816;9.482;2023-04-01T18:09:31;100861.56;;;3.84;100.00
69957;BME280;57283;54.816;9.482;2023-04-01T18:12:10;100866.72;;;3.81;100.00
69957;BME280;57283;54.816;9.482;2023-04-01T18:14:51;100795.13;;;3.30;100.00
69957;BME280;57283;54.816;9.482;2023-04-01T18:17:25;100865.81;;;3.68;100.00
69957;BME280;57283;54.816;9.482;2023-04-01T18:20:33;100871.84;;;3.66;100.00
69957;BME280;57283;54.816;9.482;2023-04-01T18:23:06;100893.34;;;3.69;100.00
69957;BME280;57283;54.816;9.482;2023-04-01T18:25:41;100901.09;;;3.63;100.00
69957;BME280;57283;54.816;9.482;2023-04-01T18:28:21;100901.09;;;3.62;100.00
69957;BME280;57283;54.816;9.482;2023-04-01T18:30:54;100893.28;;;3.48;100.00
69957;BME280;57283;54.816;9.482;2023-04-01T18:33:26;100901.03;;;3.46;100.00
69957;BME280;57283;54.816;9.482;2023-04-01T18:36:09;100916.53;;;3.49;100.00
69957;BME280;57283;54.816;9.482;2023-04-01T18:38:46;100932.03;;;3.49;100.00
69957;BME280;57283;54.816;9.482;2023-04-01T18:41:22;100931.13;;;3.46;100.00
69957;BME280;57283;54.816;9.482;2023-04-01T18:43:59;100942.31;;;3.43;100.00
69957;BME280;57283;54.816;9.482;2023-04-01T18:46:38;100944.88;;;3.42;100.00
69957;BME280;57283;54.816;9.482;2023-04-01T18:49:13;100946.56;;;3.37;100.00
69957;BME280;57283;54.816;9.482;2023-04-01T18:51:48;100950.03;;;3.39;100.00
69957;BME280;57283;54.816;9.482;2023-04-01T18:54:24;100953.47;;;3.35;100.00
69957;BME280;57283;54.816;9.482;2023-04-01T18:57:02;100959.44;;;3.29;100.00
69957;BME280;57283;54.816;9.482;2023-04-01T18:59:37;100956.78;;;3.19;100.00
69957;BME280;57283;54.816;9.482;2023-04-01T19:02:17;100959.38;;;3.17;100.00
69957;BME280;57283;54.816;9.482;2023-04-01T19:04:52;100933.41;;;2.96;100.00
69957;BME280;57283;54.816;9.482;2023-04-01T19:07:42;100966.22;;;3.15;100.00
69957;BME280;57283;54.816;9.482;2023-04-01T19:10:24;100968.78;;;3.10;100.00
69957;BME280;57283;54.816;9.482;2023-04-01T19:13:11;100992.00;;;3.12;100.00
69957;BME280;57283;54.816;9.482;2023-04-01T19:15:45;100980.81;;;3.10;100.00
69957;BME280;57283;54.816;9.482;2023-04-01T19:21:18;100993.66;;;3.04;100.00
69957;BME280;57283;54.816;9.482;2023-04-01T19:24:07;101006.59;;;3.07;100.00
69957;BME280;57283;54.816;9.482;2023-04-01T19:26:42;100991.94;;;3.00;100.00
69957;BME280;57283;54.816;9.482;2023-04-01T19:29:26;101006.69;;;3.16;100.00
69957;BME280;57283;54.816;9.482;2023-04-01T19:32:06;101004.97;;;3.17;100.00
69957;BME280;57283;54.816;9.482;2023-04-01T19:34:47;101019.59;;;3.22;100.00
69957;BME280;57283;54.816;9.482;2023-04-01T19:37:25;101001.41;;;3.07;100.00
69957;BME280;57283;54.816;9.482;2023-04-01T19:40:08;101016.13;;;3.20;100.00
69957;BME280;57283;54.816;9.482;2023-04-01T19:42:49;101029.97;;;3.28;100.00
69957;BME280;57283;54.816;9.482;2023-04-01T19:45:30;101033.41;;;3.26;100.00
69957;BME280;57283;54.816;9.482;2023-04-01T19:48:07;101034.22;;;3.20;100.00
69957;BME280;57283;54.816;9.482;2023-04-01T19:50:47;101051.41;;;3.20;100.00
69957;BME280;57283;54.816;9.482;2023-04-01T19:53:23;101064.31;;;3.21;100.00
69957;BME280;57283;54.816;9.482;2023-04-01T19:56:04;101047.88;;;3.08;100.00
69957;BME280;57283;54.816;9.482;2023-04-01T19:58:40;101029.63;;;2.89;100.00
69957;BME280;57283;54.816;9.482;2023-04-01T20:01:15;101065.91;;;3.04;100.00
69957;BME280;57283;54.816;9.482;2023-04-01T20:03:49;101072.75;;;3.02;100.00
69957;BME280;57283;54.816;9.482;2023-04-01T20:06:23;101086.53;;;3.04;100.00
69957;BME280;57283;54.816;9.482;2023-04-01T20:09:05;101085.59;;;2.94;100.00
69957;BME280;57283;54.816;9.482;2023-04-01T20:11:47;101094.25;;;2.99;100.00
69957;BME280;57283;54.816;9.482;2023-04-01T20:14:27;101096.81;;;2.96;100.00
69957;BME280;57283;54.816;9.482;2023-04-01T20:17:16;101101.94;;;2.95;100.00
69957;BME280;57283;54.816;9.482;2023-04-01T20:19:53;101078.47;;;2.67;100.00
69957;BME280;57283;54.816;9.482;2023-04-01T20:22:31;101116.47;;;2.87;100.00
69957;BME280;57283;54.816;9.482;2023-04-01T20:25:09;101116.47;;;2.84;100.00
69957;BME280;57283;54.816;9.482;2023-04-01T20:27:47;101131.03;;;2.82;100.00
69957;BME280;57283;54.816;9.482;2023-04-01T20:30:30;101139.63;;;2.80;100.00
69957;BME280;57283;54.816;9.482;2023-04-01T20:33:14;101136.16;;;2.78;100.00
69957;BME280;57283;54.816;9.482;2023-04-01T20:35:51;101148.22;;;2.79;100.00
69957;BME280;57283;54.816;9.482;2023-04-01T20:41:34;101159.13;;;2.59;100.00
69957;BME280;57283;54.816;9.482;2023-04-01T20:44:08;101159.91;;;2.53;100.00
69957;BME280;57283;54.816;9.482;2023-04-01T20:46:48;101158.34;;;2.63;100.00
69957;BME280;57283;54.816;9.482;2023-04-01T20:49:33;101153.19;;;2.63;100.00
69957;BME280;57283;54.816;9.482;2023-04-01T20:52:25;101145.44;;;2.63;100.00
69957;BME280;57283;54.816;9.482;2023-04-01T20:55:26;101171.31;;;2.72;100.00
69957;BME280;57283;54.816;9.482;2023-04-01T20:58:08;101172.31;;;2.82;100.00
69957;BME280;57283;54.816;9.482;2023-04-01T21:00:48;101179.06;;;2.73;100.00
69957;BME280;57283;54.816;9.482;2023-04-01T21:03:32;101187.66;;;2.72;100.00
69957;BME280;57283;54.816;9.482;2023-04-01T21:06:32;101188.44;;;2.65;100.00
69957;BME280;57283;54.816;9.482;2023-04-01T21:09:18;101197.81;;;2.59;100.00
69957;BME280;57283;54.816;9.482;2023-04-01T21:11:57;101188.25;;;2.50;100.00
69957;BME280;57283;54.816;9.482;2023-04-01T21:17:34;101209.84;;;2.58;100.00
69957;BME280;57283;54.816;9.482;2023-04-01T21:20:17;101177.06;;;2.48;100.00
69957;BME280;57283;54.816;9.482;2023-04-01T21:23:08;101219.19;;;2.52;100.00
69957;BME280;57283;54.816;9.482;2023-04-01T21:25:58;101217.50;;;2.54;100.00
69957;BME280;57283;54.816;9.482;2023-04-01T21:28:34;101207.84;;;2.39;100.00
69957;BME280;57283;54.816;9.482;2023-04-01T21:31:26;101232.09;;;2.50;100.00
69957;BME280;57283;54.816;9.482;2023-04-01T21:40:19;101242.19;;;2.38;100.00
69957;BME280;57283;54.816;9.482;2023-04-01T21:43:00;101238.66;;;2.30;100.00
69957;BME280;57283;54.816;9.482;2023-04-01T21:45:46;101236.75;;;2.20;100.00
69957;BME280;57283;54.816;9.482;2023-04-01T21:48:41;101255.84;;;2.31;100.00
69957;BME280;57283;54.816;9.482;2023-04-01T21:51:38;101266.94;;;2.27;100.00
69957;BME280;57283;54.816;9.482;2023-04-01T21:54:26;101262.63;;;2.24;100.00
69957;BME280;57283;54.816;9.482;2023-04-01T21:57:39;101271.38;;;2.34;100.00
69957;BME280;57283;54.816;9.482;2023-04-01T22:00:15;101268.75;;;2.31;100.00
69957;BME280;57283;54.816;9.482;2023-04-01T22:06:13;101291.06;;;2.30;100.00
69957;BME280;57283;54.816;9.482;2023-04-01T22:08:53;101294.50;;;2.31;100.00
69957;BME280;57283;54.816;9.482;2023-04-01T22:11:42;101295.44;;;2.34;100.00
69957;BME280;57283;54.816;9.482;2023-04-01T22:14:22;101295.44;;;2.36;100.00
69957;BME280;57283;54.816;9.482;2023-04-01T22:16:57;101304.06;;;2.38;100.00
69957;BME280;57283;54.816;9.482;2023-04-01T22:19:37;101305.75;;;2.37;100.00
69957;BME280;57283;54.816;9.482;2023-04-01T22:22:15;101309.13;;;2.32;100.00
69957;BME280;57283;54.816;9.482;2023-04-01T22:24:54;101291.00;;;2.26;100.00
69957;BME280;57283;54.816;9.482;2023-04-01T22:27:29;101296.19;;;2.29;100.00
69957;BME280;57283;54.816;9.482;2023-04-01T22:30:11;101321.31;;;2.42;100.00
69957;BME280;57283;54.816;9.482;2023-04-01T22:32:44;101310.81;;;2.30;100.00
69957;BME280;57283;54.816;9.482;2023-04-01T22:35:23;101322.03;;;2.32;100.00
69957;BME280;57283;54.816;9.482;2023-04-01T22:37:59;101329.75;;;2.32;100.00
69957;BME280;57283;54.816;9.482;2023-04-01T22:40:35;101328.81;;;2.27;100.00
69957;BME280;57283;54.816;9.482;2023-04-01T22:43:11;101333.13;;;2.28;100.00
69957;BME280;57283;54.816;9.482;2023-04-01T22:45:56;101339.13;;;2.28;100.00
69957;BME280;57283;54.816;9.482;2023-04-01T22:48:32;101339.00;;;2.21;100.00
69957;BME280;57283;54.816;9.482;2023-04-01T22:51:10;101344.19;;;2.22;100.00
69957;BME280;57283;54.816;9.482;2023-04-01T22:53:56;101348.41;;;2.19;100.00
69957;BME280;57283;54.816;9.482;2023-04-01T22:56:29;101352.69;;;2.18;100.00
69957;BME280;57283;54.816;9.482;2023-04-01T22:59:06;101353.63;;;2.22;100.00
69957;BME280;57283;54.816;9.482;2023-04-01T23:01:41;101362.19;;;2.21;100.00
69957;BME280;57283;54.816;9.482;2023-04-01T23:04:16;101364.81;;;2.24;100.00
69957;BME280;57283;54.816;9.482;2023-04-01T23:06:50;101368.28;;;2.26;100.00
69957;BME280;57283;54.816;9.482;2023-04-01T23:09:20;101370.81;;;2.23;100.00
69957;BME280;57283;54.816;9.482;2023-04-01T23:11:51;101344.66;;;2.01;100.00
69957;BME280;57283;54.816;9.482;2023-04-01T23:14:34;101380.31;;;2.25;100.00
69957;BME280;57283;54.816;9.482;2023-04-01T23:17:12;101379.38;;;2.22;100.00
69957;BME280;57283;54.816;9.482;2023-04-01T23:19:48;101388.00;;;2.24;100.00
69957;BME280;57283;54.816;9.482;2023-04-01T23:22:25;101389.69;;;2.22;100.00
69957;BME280;57283;54.816;9.482;2023-04-01T23:25:00;101389.69;;;2.22;100.00
69957;BME280;57283;54.816;9.482;2023-04-01T23:27:36;101392.22;;;2.17;100.00
69957;BME280;57283;54.816;9.482;2023-04-01T23:33:26;101404.06;;;2.09;100.00
69957;BME280;57283;54.816;9.482;2023-04-01T23:35:56;101405.72;;;2.05;100.00
69957;BME280;57283;54.816;9.482;2023-04-01T23:38:33;101415.13;;;2.03;100.00
69957;BME280;57283;54.816;9.482;2023-04-01T23:41:02;101413.38;;;2.02;100.00
69957;BME280;57283;54.816;9.482;2023-04-01T23:43:33;101421.94;;;2.01;100.00
69957;BME280;57283;54.816;9.482;2023-04-01T23:46:06;101430.50;;;1.97;100.00
69957;BME280;57283;54.816;9.482;2023-04-01T23:48:39;101425.13;;;1.88;100.00
69957;BME280;57283;54.816;9.482;2023-04-01T23:51:13;101445.88;;;1.94;100.00
69957;BME280;57283;54.816;9.482;2023-04-01T23:53:44;101442.25;;;1.86;100.00
69957;BME280;57283;54.816;9.482;2023-04-01T23:56:16;101401.19;;;1.49;100.00
69957;BME280;57283;54.816;9.482;2023-04-01T23:58:47;101453.31;;;1.79;100.00
